createdAt,value
2019-05-20T00:00:57.974Z,1004.9
2019-05-20T00:01:58.037Z,1004.9
2019-05-20T00:02:58.018Z,1005
2019-05-20T00:03:58.052Z,1005
2019-05-20T00:04:58.075Z,1004.9
2019-05-20T00:05:58.131Z,1004.9
2019-05-20T00:06:58.072Z,1005
2019-05-20T00:07:58.115Z,1004.9
2019-05-20T00:08:58.111Z,1004.9
2019-05-20T00:09:58.172Z,1004.9
2019-05-20T00:10:58.174Z,1004.8
2019-05-20T00:11:58.158Z,1004.8
2019-05-20T00:12:58.175Z,1004.8
2019-05-20T00:13:58.222Z,1004.7
2019-05-20T00:14:58.225Z,1004.8
2019-05-20T00:15:58.225Z,1004.7
2019-05-20T00:16:58.232Z,1004.7
2019-05-20T00:17:58.268Z,1004.7
2019-05-20T00:18:58.257Z,1004.8
2019-05-20T00:19:58.272Z,1004.7
2019-05-20T00:20:58.263Z,1004.8
2019-05-20T00:21:58.310Z,1004.7
2019-05-20T00:22:58.311Z,1004.7
2019-05-20T00:23:58.266Z,1004.6
2019-05-20T00:24:58.272Z,1004.6
2019-05-20T00:25:58.276Z,1004.7
2019-05-20T00:26:58.284Z,1004.6
2019-05-20T00:27:58.314Z,1004.6
2019-05-20T00:28:58.342Z,1004.5
2019-05-20T00:29:58.367Z,1004.6
2019-05-20T00:30:58.456Z,1004.6
2019-05-20T00:31:58.520Z,1004.6
2019-05-20T00:32:58.556Z,1004.4
2019-05-20T00:33:58.563Z,1004.5
2019-05-20T00:34:58.610Z,1004.5
2019-05-20T00:35:58.652Z,1004.5
2019-05-20T00:36:58.650Z,1004.5
2019-05-20T00:37:58.727Z,1004.5
2019-05-20T00:38:58.782Z,1004.5
2019-05-20T00:39:58.830Z,1004.5
2019-05-20T00:40:58.813Z,1004.5
2019-05-20T00:41:58.890Z,1004.6
2019-05-20T00:42:58.954Z,1004.6
2019-05-20T00:43:58.970Z,1004.6
2019-05-20T00:44:58.962Z,1004.6
2019-05-20T00:45:58.990Z,1004.5
2019-05-20T00:46:59.059Z,1004.6
2019-05-20T00:47:59.090Z,1004.6
2019-05-20T00:48:59.191Z,1004.6
2019-05-20T00:49:59.190Z,1004.7
2019-05-20T00:50:59.209Z,1004.7
2019-05-20T00:51:59.266Z,1004.7
2019-05-20T00:52:59.294Z,1004.7
2019-05-20T00:53:59.379Z,1004.6
2019-05-20T00:54:59.404Z,1004.6
2019-05-20T00:55:59.474Z,1004.7
2019-05-20T00:56:59.493Z,1004.6
2019-05-20T00:57:59.544Z,1004.6
2019-05-20T00:58:59.552Z,1004.7
2019-05-20T00:59:59.615Z,1004.7
2019-05-20T01:00:59.623Z,1004.7
2019-05-20T01:01:59.644Z,1004.7
2019-05-20T01:02:59.666Z,1004.7
2019-05-20T01:03:59.668Z,1004.7
2019-05-20T01:04:59.682Z,1004.7
2019-05-20T01:05:59.737Z,1004.7
2019-05-20T01:06:59.777Z,1004.6
2019-05-20T01:07:59.814Z,1004.6
2019-05-20T01:08:59.807Z,1004.7
2019-05-20T01:09:59.875Z,1004.7
2019-05-20T01:10:59.910Z,1004.6
2019-05-20T01:11:59.954Z,1004.6
2019-05-20T01:12:59.953Z,1004.6
2019-05-20T01:13:59.951Z,1004.6
2019-05-20T01:14:59.963Z,1004.5
2019-05-20T01:16:00.007Z,1004.5
2019-05-20T01:17:00.008Z,1004.6
2019-05-20T01:18:00.069Z,1004.5
2019-05-20T01:19:00.095Z,1004.6
2019-05-20T01:20:00.160Z,1004.6
2019-05-20T01:21:02.908Z,1004.6
2019-05-20T01:22:00.206Z,1004.6
2019-05-20T01:23:00.202Z,1004.6
2019-05-20T01:24:00.258Z,1004.6
2019-05-20T01:25:00.245Z,1004.5
2019-05-20T01:26:00.254Z,1004.6
2019-05-20T01:27:00.361Z,1004.5
2019-05-20T01:28:00.362Z,1004.5
2019-05-20T01:29:00.400Z,1004.6
2019-05-20T01:30:00.402Z,1004.6
2019-05-20T01:31:00.411Z,1004.6
2019-05-20T01:32:00.423Z,1004.6
2019-05-20T01:33:12.676Z,1004.6
2019-05-20T01:34:00.571Z,1004.6
2019-05-20T01:35:00.507Z,1004.6
2019-05-20T01:36:00.538Z,1004.6
2019-05-20T01:37:00.542Z,1004.6
2019-05-20T01:38:00.590Z,1004.6
2019-05-20T01:39:00.594Z,1004.6
2019-05-20T01:40:00.667Z,1004.6
2019-05-20T01:41:00.621Z,1004.6
2019-05-20T01:42:00.883Z,1004.6
2019-05-20T01:43:00.676Z,1004.5
2019-05-20T01:44:00.683Z,1004.5
2019-05-20T01:45:00.747Z,1004.6
2019-05-20T01:46:00.721Z,1004.5
2019-05-20T01:47:00.766Z,1004.5
2019-05-20T01:48:00.784Z,1004.5
2019-05-20T01:49:00.822Z,1004.5
2019-05-20T01:50:00.808Z,1004.5
2019-05-20T01:51:00.818Z,1004.5
2019-05-20T01:52:00.984Z,1004.5
2019-05-20T01:53:00.856Z,1004.5
2019-05-20T01:54:00.849Z,1004.5
2019-05-20T01:55:00.920Z,1004.4
2019-05-20T01:56:00.950Z,1004.5
2019-05-20T01:57:00.910Z,1004.5
2019-05-20T01:58:00.921Z,1004.4
2019-05-20T01:59:00.948Z,1004.4
2019-05-20T02:00:00.980Z,1004.3
2019-05-20T02:01:00.950Z,1004.4
2019-05-20T02:02:00.975Z,1004.4
2019-05-20T02:03:00.970Z,1004.3
2019-05-20T02:04:00.971Z,1004.4
2019-05-20T02:05:01.001Z,1004.3
2019-05-20T02:06:00.977Z,1004.3
2019-05-20T02:07:00.991Z,1004.3
2019-05-20T02:08:00.987Z,1004.3
2019-05-20T02:09:00.984Z,1004.3
2019-05-20T02:10:01.023Z,1004.3
2019-05-20T02:11:01.013Z,1004.3
2019-05-20T02:12:01.015Z,1004.3
2019-05-20T02:13:01.058Z,1004.3
2019-05-20T02:14:01.308Z,1004.2
2019-05-20T02:15:01.300Z,1004.2
2019-05-20T02:16:01.233Z,1004.3
2019-05-20T02:17:02.734Z,1004.2
2019-05-20T02:18:01.328Z,1004.2
2019-05-20T02:19:01.326Z,1004.3
2019-05-20T02:20:01.363Z,1004.3
2019-05-20T02:21:01.407Z,1004.3
2019-05-20T02:22:01.792Z,1004.2
2019-05-20T02:23:01.559Z,1004.3
2019-05-20T02:24:01.571Z,1004.2
2019-05-20T02:25:01.633Z,1004.3
2019-05-20T02:26:01.693Z,1004.2
2019-05-20T02:27:01.646Z,1004.2
2019-05-20T02:28:01.719Z,1004.2
2019-05-20T02:29:01.749Z,1004.2
2019-05-20T02:30:01.811Z,1004.2
2019-05-20T02:31:01.854Z,1004.1
2019-05-20T02:32:01.880Z,1004.2
2019-05-20T02:33:01.911Z,1004.1
2019-05-20T02:34:01.986Z,1004.1
2019-05-20T02:35:02.041Z,1004.2
2019-05-20T02:36:02.078Z,1004.2
2019-05-20T02:37:02.092Z,1004.2
2019-05-20T02:38:02.120Z,1004.2
2019-05-20T02:39:02.194Z,1004.2
2019-05-20T02:40:02.211Z,1004.2
2019-05-20T02:41:02.250Z,1004.1
2019-05-20T02:42:02.366Z,1004.2
2019-05-20T02:43:02.318Z,1004.2
2019-05-20T02:44:02.307Z,1004.1
2019-05-20T02:45:02.366Z,1004.2
2019-05-20T02:46:02.433Z,1004.1
2019-05-20T02:47:02.446Z,1004.1
2019-05-20T02:48:02.513Z,1004.1
2019-05-20T02:49:02.561Z,1004.1
2019-05-20T02:50:02.651Z,1004.1
2019-05-20T02:51:02.645Z,1004.1
2019-05-20T02:52:02.694Z,1004.1
2019-05-20T02:53:02.754Z,1004.1
2019-05-20T02:54:02.890Z,1004.1
2019-05-20T02:55:02.802Z,1004.1
2019-05-20T02:56:02.862Z,1004.1
2019-05-20T02:57:02.900Z,1004.1
2019-05-20T02:58:02.937Z,1004.1
2019-05-20T02:59:02.918Z,1004
2019-05-20T03:00:02.907Z,1004
2019-05-20T03:01:02.938Z,1004
2019-05-20T03:02:02.951Z,1004
2019-05-20T03:03:02.990Z,1004
2019-05-20T03:04:11.305Z,1004
2019-05-20T03:05:03.063Z,1003.9
2019-05-20T03:06:03.110Z,1004
2019-05-20T03:07:03.152Z,1003.9
2019-05-20T03:08:03.211Z,1004
2019-05-20T03:09:03.219Z,1003.9
2019-05-20T03:10:03.270Z,1004
2019-05-20T03:11:03.308Z,1004
2019-05-20T03:12:03.377Z,1004
2019-05-20T03:13:03.379Z,1004.1
2019-05-20T03:14:03.402Z,1004.1
2019-05-20T03:15:03.474Z,1004.1
2019-05-20T03:16:05.971Z,1004.1
2019-05-20T03:17:03.745Z,1004.2
2019-05-20T03:18:03.576Z,1004.2
2019-05-20T03:19:06.094Z,1004.2
2019-05-20T03:20:03.647Z,1004
2019-05-20T03:21:03.661Z,1004.1
2019-05-20T03:22:03.657Z,1004
2019-05-20T03:23:03.702Z,1004
2019-05-20T03:24:03.738Z,1004
2019-05-20T03:25:03.773Z,1004
2019-05-20T03:26:03.770Z,1004.1
2019-05-20T03:27:03.788Z,1004.1
2019-05-20T03:28:03.804Z,1004.2
2019-05-20T03:29:03.894Z,1004.2
2019-05-20T03:30:03.929Z,1004.2
2019-05-20T03:31:03.905Z,1004.2
2019-05-20T03:32:03.957Z,1004.1
2019-05-20T03:33:03.976Z,1004.1
2019-05-20T03:34:04.041Z,1004.2
2019-05-20T03:35:04.015Z,1004.1
2019-05-20T03:36:04.043Z,1004.1
2019-05-20T03:37:04.020Z,1004.1
2019-05-20T03:38:04.065Z,1004.1
2019-05-20T03:39:04.073Z,1004.1
2019-05-20T03:40:04.112Z,1004.2
2019-05-20T03:41:04.110Z,1004.2
2019-05-20T03:42:04.135Z,1004.2
2019-05-20T03:43:04.170Z,1004.2
2019-05-20T03:44:04.174Z,1004.2
2019-05-20T03:45:04.203Z,1004.2
2019-05-20T03:46:04.623Z,1004.2
2019-05-20T03:47:04.254Z,1004.1
2019-05-20T03:48:04.262Z,1004.2
2019-05-20T03:49:06.514Z,1004.2
2019-05-20T03:50:04.261Z,1004.2
2019-05-20T03:51:04.287Z,1004.2
2019-05-20T03:52:04.282Z,1004.2
2019-05-20T03:53:04.289Z,1004.1
2019-05-20T03:54:04.320Z,1004.2
2019-05-20T03:55:04.306Z,1004.2
2019-05-20T03:56:04.355Z,1004.1
2019-05-20T03:57:04.324Z,1004.2
2019-05-20T03:58:04.342Z,1004.2
2019-05-20T03:59:04.352Z,1004.2
2019-05-20T04:00:04.371Z,1004.1
2019-05-20T04:01:04.400Z,1004.1
2019-05-20T04:02:04.354Z,1004.1
2019-05-20T04:03:04.389Z,1004.1
2019-05-20T04:04:04.355Z,1004.1
2019-05-20T04:05:04.377Z,1004.1
2019-05-20T04:06:04.373Z,1004.2
2019-05-20T04:07:04.572Z,1004.1
2019-05-20T04:08:04.579Z,1004.1
2019-05-20T04:09:04.431Z,1004.1
2019-05-20T04:10:04.523Z,1004.1
2019-05-20T04:11:04.543Z,1004.2
2019-05-20T04:12:04.605Z,1004.2
2019-05-20T04:13:04.612Z,1004.1
2019-05-20T04:14:04.599Z,1004.1
2019-05-20T04:15:04.678Z,1004.1
2019-05-20T04:16:04.678Z,1004.1
2019-05-20T04:17:04.757Z,1004
2019-05-20T04:18:04.775Z,1004
2019-05-20T04:19:04.766Z,1004.1
2019-05-20T04:20:04.845Z,1004
2019-05-20T04:21:04.900Z,1004.1
2019-05-20T04:22:05.008Z,1004
2019-05-20T04:23:05.030Z,1004
2019-05-20T04:24:05.053Z,1004
2019-05-20T04:25:05.020Z,1004
2019-05-20T04:26:05.066Z,1004
2019-05-20T04:27:05.094Z,1004
2019-05-20T04:28:05.164Z,1004
2019-05-20T04:29:05.227Z,1004
2019-05-20T04:30:05.225Z,1004
2019-05-20T04:31:05.249Z,1004.1
2019-05-20T04:32:05.305Z,1004.1
2019-05-20T04:33:05.356Z,1004.1
2019-05-20T04:34:05.407Z,1004.1
2019-05-20T04:35:20.364Z,1004.1
2019-05-20T04:36:05.489Z,1004.2
2019-05-20T04:37:05.510Z,1004.1
2019-05-20T04:38:05.548Z,1004.1
2019-05-20T04:39:05.556Z,1004.1
2019-05-20T04:40:05.581Z,1004.2
2019-05-20T04:41:05.673Z,1004.1
2019-05-20T04:42:06.817Z,1004.1
2019-05-20T04:43:05.725Z,1004.1
2019-05-20T04:44:05.754Z,1004.1
2019-05-20T04:45:05.797Z,1004
2019-05-20T04:46:05.842Z,1004
2019-05-20T04:47:05.902Z,1004
2019-05-20T04:48:05.938Z,1004
2019-05-20T04:49:05.990Z,1004
2019-05-20T04:50:06.010Z,1004
2019-05-20T04:51:06.051Z,1003.9
2019-05-20T04:52:06.121Z,1004
2019-05-20T04:53:06.159Z,1004
2019-05-20T04:54:06.173Z,1003.9
2019-05-20T04:55:06.239Z,1003.9
2019-05-20T04:56:06.283Z,1003.9
2019-05-20T04:57:06.324Z,1003.9
2019-05-20T04:58:06.412Z,1003.9
2019-05-20T04:59:06.419Z,1003.9
2019-05-20T05:00:06.418Z,1004
2019-05-20T05:01:06.469Z,1003.9
2019-05-20T05:02:06.506Z,1003.9
2019-05-20T05:03:06.547Z,1003.9
2019-05-20T05:04:06.597Z,1004
2019-05-20T05:05:06.679Z,1003.9
2019-05-20T05:06:06.640Z,1003.9
2019-05-20T05:07:06.623Z,1003.9
2019-05-20T05:08:06.655Z,1003.9
2019-05-20T05:09:06.763Z,1003.9
2019-05-20T05:10:06.773Z,1004
2019-05-20T05:11:06.802Z,1003.9
2019-05-20T05:12:06.817Z,1004
2019-05-20T05:13:06.870Z,1003.9
2019-05-20T05:14:06.939Z,1004
2019-05-20T05:15:07.965Z,1003.9
2019-05-20T05:16:06.955Z,1004
2019-05-20T05:17:06.996Z,1003.9
2019-05-20T05:18:07.022Z,1003.9
2019-05-20T05:19:07.101Z,1003.9
2019-05-20T05:20:07.099Z,1003.9
2019-05-20T05:21:07.161Z,1003.9
2019-05-20T05:22:07.177Z,1003.9
2019-05-20T05:23:07.190Z,1003.8
2019-05-20T05:24:07.433Z,1003.8
2019-05-20T05:25:07.220Z,1003.9
2019-05-20T05:26:07.245Z,1003.9
2019-05-20T05:27:07.294Z,1003.8
2019-05-20T05:28:07.312Z,1003.9
2019-05-20T05:29:07.417Z,1003.9
2019-05-20T05:30:07.364Z,1003.9
2019-05-20T05:31:07.360Z,1003.9
2019-05-20T05:32:07.420Z,1003.9
2019-05-20T05:33:07.406Z,1003.9
2019-05-20T05:34:07.462Z,1003.9
2019-05-20T05:35:07.432Z,1003.8
2019-05-20T05:36:07.439Z,1003.8
2019-05-20T05:37:07.485Z,1003.7
2019-05-20T05:38:07.557Z,1003.7
2019-05-20T05:39:07.511Z,1003.7
2019-05-20T05:40:08.266Z,1003.7
2019-05-20T05:41:07.488Z,1003.8
2019-05-20T05:42:07.530Z,1003.7
2019-05-20T05:43:07.508Z,1003.8
2019-05-20T05:44:07.548Z,1003.8
2019-05-20T05:45:07.542Z,1003.8
2019-05-20T05:46:07.553Z,1003.7
2019-05-20T05:47:07.591Z,1003.7
2019-05-20T05:48:07.560Z,1003.7
2019-05-20T05:49:07.557Z,1003.8
2019-05-20T05:50:07.560Z,1003.7
2019-05-20T05:51:07.572Z,1003.7
2019-05-20T05:52:07.611Z,1003.8
2019-05-20T05:53:07.580Z,1003.7
2019-05-20T05:54:07.597Z,1003.8
2019-05-20T05:55:07.646Z,1003.7
2019-05-20T05:56:07.636Z,1003.8
2019-05-20T05:57:07.593Z,1003.7
2019-05-20T05:58:08.648Z,1003.7
2019-05-20T05:59:07.778Z,1003.7
2019-05-20T06:00:07.770Z,1003.6
2019-05-20T06:01:07.846Z,1003.6
2019-05-20T06:02:07.875Z,1003.6
2019-05-20T06:03:07.875Z,1003.6
2019-05-20T06:04:07.999Z,1003.6
2019-05-20T06:05:08.002Z,1003.5
2019-05-20T06:06:12.450Z,1003.5
2019-05-20T06:07:08.127Z,1003.5
2019-05-20T06:08:08.129Z,1003.5
2019-05-20T06:09:08.298Z,1003.5
2019-05-20T06:10:08.226Z,1003.5
2019-05-20T06:11:08.280Z,1003.5
2019-05-20T06:12:08.333Z,1003.5
2019-05-20T06:13:08.358Z,1003.5
2019-05-20T06:14:08.409Z,1003.5
2019-05-20T06:15:08.451Z,1003.5
2019-05-20T06:16:08.501Z,1003.5
2019-05-20T06:17:08.599Z,1003.6
2019-05-20T06:18:08.581Z,1003.6
2019-05-20T06:19:08.645Z,1003.6
2019-05-20T06:20:08.672Z,1003.6
2019-05-20T06:21:08.731Z,1003.6
2019-05-20T06:22:08.823Z,1003.6
2019-05-20T06:23:08.849Z,1003.5
2019-05-20T06:24:08.903Z,1003.5
2019-05-20T06:25:09.028Z,1003.6
2019-05-20T06:26:09.031Z,1003.6
2019-05-20T06:27:09.061Z,1003.5
2019-05-20T06:28:09.092Z,1003.5
2019-05-20T06:29:09.132Z,1003.5
2019-05-20T06:30:09.264Z,1003.5
2019-05-20T06:31:09.223Z,1003.5
2019-05-20T06:32:09.282Z,1003.5
2019-05-20T06:33:09.288Z,1003.5
2019-05-20T06:34:09.324Z,1003.5
2019-05-20T06:35:09.497Z,1003.5
2019-05-20T06:36:09.395Z,1003.5
2019-05-20T06:37:09.416Z,1003.6
2019-05-20T06:38:09.467Z,1003.5
2019-05-20T06:39:09.490Z,1003.5
2019-05-20T06:40:09.576Z,1003.5
2019-05-20T06:41:09.629Z,1003.4
2019-05-20T06:42:09.643Z,1003.4
2019-05-20T06:43:09.737Z,1003.4
2019-05-20T06:44:09.744Z,1003.3
2019-05-20T06:45:09.814Z,1003.4
2019-05-20T06:46:09.814Z,1003.3
2019-05-20T06:47:09.831Z,1003.3
2019-05-20T06:48:09.909Z,1003.3
2019-05-20T06:49:09.924Z,1003.4
2019-05-20T06:50:09.964Z,1003.4
2019-05-20T06:51:10.038Z,1003.5
2019-05-20T06:52:10.299Z,1003.4
2019-05-20T06:53:10.138Z,1003.4
2019-05-20T06:54:10.134Z,1003.5
2019-05-20T06:55:10.209Z,1003.5
2019-05-20T06:56:10.274Z,1003.4
2019-05-20T06:57:10.500Z,1003.4
2019-05-20T06:58:11.548Z,1003.5
2019-05-20T06:59:10.320Z,1003.5
2019-05-20T07:00:10.359Z,1003.4
2019-05-20T07:01:10.482Z,1003.5
2019-05-20T07:02:10.452Z,1003.4
2019-05-20T07:03:10.533Z,1003.4
2019-05-20T07:04:10.515Z,1003.4
2019-05-20T07:05:10.533Z,1003.3
2019-05-20T07:06:10.573Z,1003.4
2019-05-20T07:07:20.224Z,1003.4
2019-05-20T07:08:10.651Z,1003.4
2019-05-20T07:09:10.738Z,1003.4
2019-05-20T07:10:10.679Z,1003.4
2019-05-20T07:11:10.700Z,1003.5
2019-05-20T07:12:10.729Z,1003.4
2019-05-20T07:13:10.783Z,1003.4
2019-05-20T07:14:10.729Z,1003.4
2019-05-20T07:15:10.769Z,1003.5
2019-05-20T07:16:10.789Z,1003.4
2019-05-20T07:17:10.833Z,1003.4
2019-05-20T07:18:10.947Z,1003.4
2019-05-20T07:19:10.884Z,1003.4
2019-05-20T07:20:10.895Z,1003.4
2019-05-20T07:21:10.998Z,1003.3
2019-05-20T07:22:10.968Z,1003.3
2019-05-20T07:23:10.965Z,1003.3
2019-05-20T07:24:11.146Z,1003.3
2019-05-20T07:25:11.017Z,1003.3
2019-05-20T07:26:11.062Z,1003.3
2019-05-20T07:27:11.143Z,1003.3
2019-05-20T07:28:11.078Z,1003.2
2019-05-20T07:29:11.069Z,1003.2
2019-05-20T07:30:14.873Z,1003.3
2019-05-20T07:31:11.133Z,1003.3
2019-05-20T07:32:11.129Z,1003.3
2019-05-20T07:33:11.142Z,1003.2
2019-05-20T07:34:11.159Z,1003.2
2019-05-20T07:35:26.248Z,1003.3
2019-05-20T07:36:11.191Z,1003.1
2019-05-20T07:37:11.187Z,1003.2
2019-05-20T07:38:11.248Z,1003.2
2019-05-20T07:39:11.391Z,1003.2
2019-05-20T07:40:11.237Z,1003.2
2019-05-20T07:41:11.286Z,1003.1
2019-05-20T07:42:11.259Z,1003.1
2019-05-20T07:43:11.268Z,1003.1
2019-05-20T07:44:11.308Z,1003.1
2019-05-20T07:45:11.286Z,1003.1
2019-05-20T07:46:11.324Z,1003.1
2019-05-20T07:47:11.392Z,1003
2019-05-20T07:48:11.303Z,1003.1
2019-05-20T07:49:12.024Z,1003
2019-05-20T07:50:11.307Z,1003
2019-05-20T07:51:11.369Z,1003
2019-05-20T07:52:11.517Z,1003
2019-05-20T07:53:11.358Z,1003
2019-05-20T07:54:11.371Z,1003
2019-05-20T07:55:11.342Z,1003
2019-05-20T07:56:11.391Z,1003
2019-05-20T07:57:11.464Z,1003
2019-05-20T07:58:11.508Z,1003
2019-05-20T07:59:11.533Z,1003
2019-05-20T08:00:11.577Z,1002.9
2019-05-20T08:01:12.166Z,1003
2019-05-20T08:02:13.964Z,1003
2019-05-20T08:03:11.783Z,1003.1
2019-05-20T08:04:11.798Z,1003.1
2019-05-20T08:05:11.890Z,1003
2019-05-20T08:06:11.919Z,1003
2019-05-20T08:07:27.133Z,1003
2019-05-20T08:08:13.131Z,1003
2019-05-20T08:09:12.085Z,1003.1
2019-05-20T08:10:12.090Z,1003
2019-05-20T08:11:12.159Z,1003
2019-05-20T08:12:12.210Z,1003
2019-05-20T08:13:12.265Z,1003
2019-05-20T08:14:12.334Z,1003
2019-05-20T08:15:12.329Z,1003.1
2019-05-20T08:16:12.379Z,1003
2019-05-20T08:17:27.785Z,1003
2019-05-20T08:18:12.491Z,1003
2019-05-20T08:19:12.544Z,1003
2019-05-20T08:20:12.592Z,1003
2019-05-20T08:21:12.613Z,1003.1
2019-05-20T08:22:12.619Z,1003
2019-05-20T08:23:12.673Z,1003
2019-05-20T08:24:12.762Z,1003
2019-05-20T08:25:12.757Z,1003
2019-05-20T08:26:12.825Z,1003.1
2019-05-20T08:27:12.846Z,1003
2019-05-20T08:28:12.902Z,1003
2019-05-20T08:29:13.082Z,1003
2019-05-20T08:30:14.094Z,1003.1
2019-05-20T08:31:13.016Z,1003.1
2019-05-20T08:32:13.100Z,1003.1
2019-05-20T08:33:13.115Z,1003
2019-05-20T08:34:13.132Z,1003.1
2019-05-20T08:35:13.188Z,1003.1
2019-05-20T08:36:13.243Z,1003.1
2019-05-20T08:37:13.381Z,1003.1
2019-05-20T08:38:13.318Z,1003.1
2019-05-20T08:39:15.597Z,1003.2
2019-05-20T08:40:13.410Z,1003.1
2019-05-20T08:41:13.447Z,1003.1
2019-05-20T08:42:13.457Z,1003.1
2019-05-20T08:43:13.471Z,1003.1
2019-05-20T08:44:13.504Z,1003.1
2019-05-20T08:45:13.550Z,1003.1
2019-05-20T08:46:13.557Z,1003.1
2019-05-20T08:47:13.631Z,1003.2
2019-05-20T08:48:13.651Z,1003.2
2019-05-20T08:49:13.701Z,1003.2
2019-05-20T08:50:16.276Z,1003.1
2019-05-20T08:51:13.769Z,1003.2
2019-05-20T08:52:13.898Z,1003.2
2019-05-20T08:53:13.845Z,1003.2
2019-05-20T08:54:13.887Z,1003.2
2019-05-20T08:55:13.878Z,1003.3
2019-05-20T08:56:13.972Z,1003.2
2019-05-20T08:57:14.034Z,1003.2
2019-05-20T08:58:13.996Z,1003.2
2019-05-20T08:59:14.079Z,1003.2
2019-05-20T09:00:14.047Z,1003.2
2019-05-20T09:01:14.069Z,1003.2
2019-05-20T09:02:14.149Z,1003.2
2019-05-20T09:03:14.130Z,1003.2
2019-05-20T09:04:14.156Z,1003.1
2019-05-20T09:05:14.174Z,1003.2
2019-05-20T09:06:14.189Z,1003.2
2019-05-20T09:07:14.223Z,1003.2
2019-05-20T09:08:14.215Z,1003.2
2019-05-20T09:09:14.241Z,1003.2
2019-05-20T09:10:14.302Z,1003.2
2019-05-20T09:11:16.795Z,1003.2
2019-05-20T09:12:14.302Z,1003.3
2019-05-20T09:13:14.394Z,1003.2
2019-05-20T09:14:14.337Z,1003.2
2019-05-20T09:15:14.338Z,1003.3
2019-05-20T09:16:14.363Z,1003.2
2019-05-20T09:17:14.413Z,1003.2
2019-05-20T09:18:14.391Z,1003.2
2019-05-20T09:19:16.892Z,1003.2
2019-05-20T09:20:14.454Z,1003.2
2019-05-20T09:21:14.531Z,1003.2
2019-05-20T09:22:14.464Z,1003.2
2019-05-20T09:23:14.454Z,1003.2
2019-05-20T09:24:18.110Z,1003.2
2019-05-20T09:25:14.698Z,1003.2
2019-05-20T09:26:14.463Z,1003.2
2019-05-20T09:27:14.526Z,1003.1
2019-05-20T09:28:14.467Z,1003.1
2019-05-20T09:29:14.484Z,1003.1
2019-05-20T09:30:14.510Z,1003.1
2019-05-20T09:31:14.683Z,1003.1
2019-05-20T09:32:14.533Z,1003
2019-05-20T09:33:14.573Z,1003.1
2019-05-20T09:34:14.546Z,1003.1
2019-05-20T09:35:14.488Z,1003.1
2019-05-20T09:36:14.485Z,1003
2019-05-20T09:37:14.579Z,1003.1
2019-05-20T09:38:19.925Z,1003.2
2019-05-20T09:39:14.639Z,1003.1
2019-05-20T09:40:15.708Z,1003
2019-05-20T09:41:14.833Z,1003
2019-05-20T09:42:14.804Z,1003
2019-05-20T09:43:14.870Z,1003.1
2019-05-20T09:44:15.000Z,1002.9
2019-05-20T09:45:14.984Z,1002.9
2019-05-20T09:46:15.062Z,1003
2019-05-20T09:47:15.076Z,1003
2019-05-20T09:48:15.184Z,1003.1
2019-05-20T09:49:15.236Z,1003
2019-05-20T09:50:15.224Z,1003.1
2019-05-20T09:51:15.322Z,1002.9
2019-05-20T09:52:15.297Z,1003
2019-05-20T09:53:15.378Z,1003
2019-05-20T09:54:15.440Z,1002.9
2019-05-20T09:55:15.593Z,1003
2019-05-20T09:56:15.517Z,1003
2019-05-20T09:57:15.500Z,1003
2019-05-20T09:58:15.494Z,1003
2019-05-20T09:59:16.390Z,1003
2019-05-20T10:00:15.617Z,1003
2019-05-20T10:01:16.675Z,1002.9
2019-05-20T10:02:15.802Z,1003
2019-05-20T10:03:15.775Z,1002.9
2019-05-20T10:04:15.850Z,1003
2019-05-20T10:05:15.887Z,1002.9
2019-05-20T10:06:15.915Z,1002.9
2019-05-20T10:07:15.976Z,1002.9
2019-05-20T10:08:16.018Z,1002.9
2019-05-20T10:09:16.059Z,1002.9
2019-05-20T10:10:16.260Z,1002.9
2019-05-20T10:11:16.197Z,1002.9
2019-05-20T10:12:16.224Z,1002.9
2019-05-20T10:13:16.240Z,1002.9
2019-05-20T10:14:16.335Z,1002.8
2019-05-20T10:15:16.351Z,1002.7
2019-05-20T10:16:16.424Z,1002.8
2019-05-20T10:17:16.519Z,1002.8
2019-05-20T10:18:16.477Z,1002.9
2019-05-20T10:19:16.572Z,1002.8
2019-05-20T10:20:16.667Z,1002.9
2019-05-20T10:21:16.654Z,1002.9
2019-05-20T10:22:16.666Z,1002.9
2019-05-20T10:23:16.729Z,1002.8
2019-05-20T10:24:16.777Z,1002.9
2019-05-20T10:25:16.822Z,1002.9
2019-05-20T10:26:16.848Z,1002.9
2019-05-20T10:27:16.926Z,1002.9
2019-05-20T10:28:16.950Z,1002.8
2019-05-20T10:29:17.054Z,1002.8
2019-05-20T10:30:17.053Z,1002.8
2019-05-20T10:31:17.053Z,1002.8
2019-05-20T10:32:17.081Z,1002.9
2019-05-20T10:33:17.115Z,1002.9
2019-05-20T10:34:17.149Z,1002.8
2019-05-20T10:35:17.182Z,1002.8
2019-05-20T10:36:17.235Z,1002.8
2019-05-20T10:37:17.321Z,1002.8
2019-05-20T10:38:17.466Z,1002.8
2019-05-20T10:39:17.330Z,1002.8
2019-05-20T10:40:17.357Z,1002.8
2019-05-20T10:41:17.386Z,1002.8
2019-05-20T10:42:17.459Z,1002.8
2019-05-20T10:43:17.526Z,1002.8
2019-05-20T10:44:17.484Z,1002.8
2019-05-20T10:45:17.524Z,1002.9
2019-05-20T10:46:17.540Z,1002.8
2019-05-20T10:47:17.615Z,1002.9
2019-05-20T10:48:17.636Z,1002.8
2019-05-20T10:49:17.710Z,1002.8
2019-05-20T10:50:17.677Z,1002.8
2019-05-20T10:51:17.705Z,1002.8
2019-05-20T10:52:17.801Z,1002.9
2019-05-20T10:53:17.793Z,1003
2019-05-20T10:54:17.836Z,1002.8
2019-05-20T10:55:17.852Z,1002.9
2019-05-20T10:56:17.911Z,1002.9
2019-05-20T10:57:17.938Z,1002.9
2019-05-20T10:58:17.944Z,1002.9
2019-05-20T10:59:17.984Z,1002.9
2019-05-20T11:00:18.004Z,1003
2019-05-20T11:01:18.047Z,1003
2019-05-20T11:02:18.095Z,1003
2019-05-20T11:03:18.108Z,1003
2019-05-20T11:04:18.097Z,1003
2019-05-20T11:05:18.181Z,1003
2019-05-20T11:06:20.541Z,1003
2019-05-20T11:07:18.211Z,1002.9
2019-05-20T11:08:18.173Z,1002.8
2019-05-20T11:09:18.247Z,1003
2019-05-20T11:10:18.258Z,1003
2019-05-20T11:11:18.250Z,1002.9
2019-05-20T11:12:18.329Z,1003
2019-05-20T11:13:18.295Z,1003.1
2019-05-20T11:14:18.346Z,1003
2019-05-20T11:15:18.387Z,1003.1
2019-05-20T11:16:18.378Z,1003.2
2019-05-20T11:17:18.391Z,1003.2
2019-05-20T11:18:18.395Z,1003.2
2019-05-20T11:19:18.420Z,1003.2
2019-05-20T11:20:18.567Z,1003.3
2019-05-20T11:21:18.460Z,1003.3
2019-05-20T11:22:18.479Z,1003.3
2019-05-20T11:23:18.479Z,1003.3
2019-05-20T11:24:18.473Z,1003.4
2019-05-20T11:25:18.542Z,1003.3
2019-05-20T11:26:18.513Z,1003.4
2019-05-20T11:27:18.578Z,1003.4
2019-05-20T11:28:18.558Z,1003.3
2019-05-20T11:29:18.712Z,1003.4
2019-05-20T11:30:18.579Z,1003.4
2019-05-20T11:31:18.609Z,1003.4
2019-05-20T11:32:18.627Z,1003.4
2019-05-20T11:33:18.620Z,1003.3
2019-05-20T11:34:18.618Z,1003.5
2019-05-20T11:35:18.633Z,1003.4
2019-05-20T11:36:18.694Z,1003.3
2019-05-20T11:37:18.693Z,1003.4
2019-05-20T11:38:18.724Z,1003.4
2019-05-20T11:39:31.973Z,1003.4
2019-05-20T11:40:18.698Z,1003.4
2019-05-20T11:41:18.724Z,1003.4
2019-05-20T11:42:18.719Z,1003.3
2019-05-20T11:43:18.703Z,1003.2
2019-05-20T11:44:18.747Z,1003.1
2019-05-20T11:45:18.728Z,1003.2
2019-05-20T11:46:18.763Z,1003.3
2019-05-20T11:47:18.727Z,1003.3
2019-05-20T11:48:18.750Z,1003.2
2019-05-20T11:49:18.776Z,1003.3
2019-05-20T11:50:18.773Z,1003.3
2019-05-20T11:51:18.777Z,1003.3
2019-05-20T11:52:18.814Z,1003.4
2019-05-20T11:53:18.865Z,1003.4
2019-05-20T11:54:18.911Z,1003.5
2019-05-20T11:55:19.020Z,1003.4
2019-05-20T11:56:18.968Z,1003.4
2019-05-20T11:57:19.091Z,1003.4
2019-05-20T11:58:19.128Z,1003.4
2019-05-20T11:59:19.278Z,1003.4
2019-05-20T12:00:19.252Z,1003.3
2019-05-20T12:01:19.271Z,1003.3
2019-05-20T12:02:19.380Z,1003.3
2019-05-20T12:03:19.399Z,1003.2
2019-05-20T12:04:19.454Z,1003.2
2019-05-20T12:05:19.500Z,1003.2
2019-05-20T12:06:19.547Z,1003.1
2019-05-20T12:07:19.651Z,1003.1
2019-05-20T12:08:19.669Z,1003.1
2019-05-20T12:09:19.781Z,1003.2
2019-05-20T12:10:19.754Z,1003.2
2019-05-20T12:11:19.792Z,1003.1
2019-05-20T12:12:20.007Z,1003.2
2019-05-20T12:13:22.383Z,1003.2
2019-05-20T12:14:19.943Z,1003.2
2019-05-20T12:15:20.052Z,1003.2
2019-05-20T12:16:20.034Z,1003.1
2019-05-20T12:17:20.039Z,1003.1
2019-05-20T12:18:20.046Z,1003.1
2019-05-20T12:19:20.109Z,1003.3
2019-05-20T12:20:20.205Z,1003.2
2019-05-20T12:21:20.195Z,1003.2
2019-05-20T12:22:20.212Z,1003.2
2019-05-20T12:23:20.248Z,1003.3
2019-05-20T12:24:20.281Z,1003.2
2019-05-20T12:25:20.343Z,1003.2
2019-05-20T12:26:22.549Z,1003.2
2019-05-20T12:27:20.430Z,1003.2
2019-05-20T12:28:20.449Z,1003.3
2019-05-20T12:29:20.499Z,1003.3
2019-05-20T12:30:20.565Z,1003.2
2019-05-20T12:31:20.544Z,1003.2
2019-05-20T12:32:20.557Z,1003.2
2019-05-20T12:33:20.639Z,1003.2
2019-05-20T12:34:20.608Z,1003.1
2019-05-20T12:35:20.598Z,1003.2
2019-05-20T12:36:20.627Z,1003.1